Terminal Aerodrome Forecast
Issued by NWS Wakefield, VA

Home | Current Version | Previous Version | Text Only | Print | Product List | Glossary On
Versions: 1 2 3 4 5 6 7 8 9 10 11 12 13
349
FTUS41 KAKQ 282338
TAFRIC
TAF
KRIC 282338Z 2900/2924 07004KT P6SM BKN250
     FM290800 VRB03KT 5SM BR BKN015
     FM290900 VRB03KT 2SM BR BKN006
     FM291300 03004KT P6SM BKN035
     FM291500 05006KT P6SM SCT040=

USA.gov is the U.S. government's official web portal to all federal, state and local government web resources and services.